Flight Track Log - Related Links

Times and Time Zones

All times are in EDT time to prevent confusion due to time zone crossing. See the SWA1231 flight status page for this flight to view local times or setup timezone preferences in your user account.


Time Position Orientation Groundspeed Altitude Reporting Facility
EDT Latitude Longitude Course Direction KTS MPH feet Rate Location/Type
Fri 02:04:20 PM 32.7833 -96.7833 128° Southeast 225 259 4,400  Level Dallas / Fort Worth TRACON
Fri 02:06:20 PM 32.8203 -96.5903 77° East 291 335 10,800 3,184 Climbing Fort Worth Center
Fri 02:07:19 PM 32.8403 -96.4836 77° East 316 364 13,900 3,300 Climbing Fort Worth Center
Fri 02:08:20 PM 32.8603 -96.3622 79° East 354 407 17,400 2,900 Climbing Fort Worth Center
Fri 02:09:19 PM 32.8675 -96.2286 86° East 387 445 19,700 2,672 Climbing Fort Worth Center
Fri 02:10:19 PM 32.8703 -96.0853 89° East 425 489 22,700 2,678 Climbing Fort Worth Center
Fri 02:11:20 PM 32.8708 -95.9467 90° East 448 516 25,100 2,380 Climbing Fort Worth Center
Fri 02:12:20 PM 32.8750 -95.7783 88° East 457 526 27,500 2,300 Climbing Fort Worth Center
Fri 02:13:20 PM 32.8769 -95.6175 89° East 468 539 29,700 2,050 Climbing Fort Worth Center
Fri 02:14:20 PM 32.8808 -95.4542 88° East 481 554 31,600 1,750 Climbing Fort Worth Center
Fri 02:15:20 PM 32.8947 -95.2858 84° East 496 571 33,200 1,700 Climbing Fort Worth Center
Fri 02:16:20 PM 32.9147 -95.1194 82° East 501 577 35,000 1,700 Climbing Fort Worth Center
Fri 02:17:20 PM 32.9408 -94.9528 79° East 506 582 36,600 1,412 Climbing Fort Worth Center
Fri 02:18:19 PM 32.9689 -94.7889 78° East 506 582 37,800 1,200 Climbing Fort Worth Center
Fri 02:19:20 PM 32.9922 -94.6197 81° East 506 582 39,000 1,140 Climbing Fort Worth Center
Fri 02:20:20 PM 33.0156 -94.4506 81° East 506 582 40,100 950 Climbing Fort Worth Center
Fri 02:21:20 PM 33.0408 -94.2811 80° East 506 582 40,900 454 Climbing Fort Worth Center
Fri 02:22:19 PM 33.0656 -94.1092 80° East 516 594 41,000 50 Climbing Fort Worth Center
Fri 02:23:20 PM 33.0886 -93.9522 80° East 523 602 41,000  Level Fort Worth Center
Fri 02:24:20 PM 33.1128 -93.7803 80° East 523 602 41,000  Level Fort Worth Center
Fri 02:25:19 PM 33.1369 -93.6081 80° East 523 602 41,000  Level Fort Worth Center
Fri 02:26:20 PM 33.1631 -93.4356 80° East 523 602 41,000  Level Fort Worth Center
Fri 02:27:20 PM 33.1867 -93.2658 81° East 523 602 41,000  Level Fort Worth Center
Fri 02:28:20 PM 33.2103 -93.0958 81° East 523 602 41,000  Level Fort Worth Center
Fri 02:29:20 PM 33.2314 -92.9261 81° East 523 602 41,000  Level Fort Worth Center
Fri 02:31:09 PM 33.2694 -92.6158 82° East 526 605 41,000  Level Memphis Center
Fri 02:32:09 PM 33.2872 -92.4447 83° East 520 598 41,000  Level Memphis Center
Fri 02:33:08 PM 33.3044 -92.2711 83° East 520 598 41,000  Level Memphis Center
Fri 02:34:09 PM 33.3175 -92.1000 85° East 520 598 41,000  Level Memphis Center
Fri 02:35:08 PM 33.3342 -91.9286 83° East 520 598 41,000  Level Memphis Center
Fri 02:36:09 PM 33.3489 -91.7522 84° East 520 598 41,000  Level Memphis Center
Fri 02:37:09 PM 33.3569 -91.5808 87° East 520 598 41,000  Level Memphis Center
Fri 02:38:08 PM 33.3711 -91.4094 84° East 515 593 41,000  Level Memphis Center
Fri 02:39:08 PM 33.3892 -91.2156 84° East 515 593 41,000  Level Memphis Center
Fri 02:40:09 PM 33.4008 -91.0439 85° East 520 598 41,000  Level Memphis Center
Fri 02:41:08 PM 33.4161 -90.8725 84° East 520 598 41,000  Level Memphis Center
Fri 02:42:08 PM 33.4314 -90.7033 84° East 520 598 41,000  Level Memphis Center
Fri 02:43:09 PM 33.4442 -90.5314 85° East 520 598 41,000  Level Memphis Center
Fri 02:44:09 PM 33.4589 -90.3597 84° East 520 598 41,000  Level Memphis Center
Fri 02:45:08 PM 33.4650 -90.1853 88° East 520 598 41,000  Level Memphis Center
Fri 02:46:09 PM 33.4689 -90.0111 88° East 515 593 41,000  Level Memphis Center
Fri 02:47:08 PM 33.4725 -89.8592 88° East 515 593 41,000 -504 Level Memphis Center
Fri 02:48:08 PM 33.4758 -89.6847 89° East 515 593 40,000 -942 Descending Memphis Center
Fri 02:49:09 PM 33.4769 -89.5131 90° East 515 593 39,100 -942 Descending Memphis Center
Fri 02:50:09 PM 33.4797 -89.3411 89° East 515 593 38,100 -1,008 Descending Memphis Center
Fri 02:51:08 PM 33.4803 -89.1642 90° East 515 593 37,100 -950 Descending Memphis Center
Fri 02:52:09 PM 33.4828 -88.9897 89° East 515 593 36,200 -950 Descending Memphis Center
Fri 02:53:08 PM 33.4847 -88.8181 89° East 515 593 35,200 -950 Descending Memphis Center
Fri 02:54:09 PM 33.4825 -88.6436 91° East 515 593 34,300 -1,091 Descending Memphis Center
Fri 02:55:09 PM 33.4944 -88.4542 86° East 515 593 33,000 -1,150 Descending Memphis Center
Fri 02:56:09 PM 33.5167 -88.2842 81° East 520 598 32,000 -1,150 Descending Memphis Center
Fri 02:57:09 PM 33.5306 -88.1169 84° East 515 593 30,700 -1,676 Descending Memphis Center
Fri 02:58:00 PM 33.5508 -87.9744 80° East 499 574 28,900 -2,143 Descending Memphis Center
Fri 02:58:19 PM 33.5561 -87.9217 83° East 494 568 28,200 -2,051 Descending Memphis Center
Fri 02:59:19 PM 33.5739 -87.7667 82° East 477 549 26,200 -1,934 Descending Memphis Center
Fri 03:00:20 PM 33.5914 -87.6167 82° East 462 532 24,300 -1,793 Descending Memphis Center
Fri 03:02:03 PM 33.6131 -87.3839 84° East 442 509 21,300 -2,135 Descending Atlanta Center
Fri 03:03:03 PM 33.6294 -87.2472 82° East 421 484 18,500 -2,550 Descending Atlanta Center
Fri 03:04:03 PM 33.6411 -87.1153 84° East 411 473 16,200 -2,300 Descending Atlanta Center
Fri 03:05:03 PM 33.6525 -86.9886 84° East 391 450 13,900 -2,300 Descending Atlanta Center
Fri 03:06:03 PM 33.6614 -86.8717 85° East 373 429 11,600 -2,400 Descending Atlanta Center
Fri 03:06:23 PM 33.6606 -86.8242 91° East 342 394 10,700 -1,900 Descending Atlanta Center
Fri 03:07:03 PM 33.6661 -86.7569 84° East 353 406 9,700 -1,791 Descending Atlanta Center
Fri 03:07:30 PM 33.6778 -86.7072 74° East 308 354 8,700 -1,900 Descending Atlanta Center
Fri 03:08:03 PM 33.6953 -86.6656 63° Northeast 328 377 7,800 -2,250 Descending Atlanta Center
Fri 03:08:18 PM 33.7106 -86.6408 53° Northeast 291 335 6,900 -2,000 Descending Atlanta Center
Fri 03:09:03 PM 33.7386 -86.5842 59° Northeast 301 346 5,800 -1,612 Descending Atlanta Center
Fri 03:09:25 PM 33.7561 -86.5522 57° Northeast 282 325 5,100 -1,023 Descending Atlanta Center
Fri 03:10:31 PM 33.7408 -86.4844 105° East 228 262 4,300 -709 Descending Atlanta Center
Fri 03:11:32 PM 33.6939 -86.5281 218° Southwest 213 245 3,600 -590 Descending Atlanta Center
Fri 03:12:33 PM 33.6658 -86.5797 237° Southwest 188 216 3,100 -522 Descending Atlanta Center
Fri 03:13:27 PM 33.6378 -86.6236 232° Southwest 165 190 2,600 -446 Descending Atlanta Center
Fri 03:14:34 PM 33.6139 -86.6703 238° Southwest 148 170 2,200 -358 Descending Atlanta Center

Login

Don't have an account? Register now (free) for customized features, flight alerts, and more!